Los Posos, Valles Caldera, New Mexico Weather observations

Data are for 10 minute period ending at time listed.
 Day   Time   Solar   Ave.   Ave.  Ave.  Vector  Max.   Baro.   Total    
  of    of     Rad.   Air    Rel.  Wind   Wind   Wind  Press.  Precip.   
Year   Day            Temp.  Hum.  Speed  Dir.   Gust                    
2015   (MST)  Kw/m2    F      %     mph   deg.    mph    mb.     in.     
-------------------------------------------------------------------------
  85    4:30   0.00   17.3    77    1.7   256     3.0   99999.0    0.00 
  85    4:40   0.00   18.1    74    1.0   255     3.0   99999.0    0.00 
  85    4:50   0.00   18.2    74    0.3   238     1.8   99999.0    0.00 
  85    5:00   0.00   18.0    75    0.9   255     1.8   99999.0    0.00 
  85    5:10   0.00   18.0    74    0.6   242     1.8   99999.0    0.00 
  85    5:20   0.00   17.6    76    0.6   285     1.8   99999.0    0.00 
  85    5:30   0.00   17.2    76    1.3   250     2.4   99999.0    0.00 
  85    5:40   0.00   16.8    76    0.8    13     2.4   99999.0    0.00 
  85    5:50   0.00   15.8    79    0.3   340     2.4   99999.0    0.00 
  85    6:00   0.00   16.0    79    0.2   268     1.8   99999.0    0.00 
  85    6:10   0.01   16.6    77    1.5   210     2.4   99999.0    0.00 
  85    6:20   0.01   17.0    75    1.8   240     2.4   99999.0    0.00 
  85    6:30   0.01   16.8    76    0.4     0     1.8   99999.0    0.00 
  85    6:40   0.04   16.0    79    1.0   301     2.4   99999.0    0.00 
  85    6:50   0.13   17.8    78    1.2    77     2.4   99999.0    0.00 
  85    7:00   0.17   21.9    72    1.5    41     2.4   99999.0    0.00 
  85    7:10   0.20   23.9    67    1.3   347     2.4   99999.0    0.00 
  85    7:20   0.24   24.5    68    0.2   348     1.2   99999.0    0.00 
  85    7:30   0.27   26.0    68    1.2   358     3.0   99999.0    0.00 
  85    7:40   0.31   31.0    58    1.6    33     2.4   99999.0    0.00 
  85    7:50   0.35   35.3    48    0.9    38     2.4   99999.0    0.00 
  85    8:00   0.39   36.5    43    0.3   132     1.8   99999.0    0.00 
  85    8:10   0.43   37.3    39    1.4   296     5.4   99999.0    0.00 
  85    8:20   0.46   38.5    37    4.5   329     8.4   99999.0    0.00 
  85    8:30   0.50   37.8    37    3.9   311     6.6   99999.0    0.00 
  85    8:40   0.53   40.2    35    4.3   347     7.8   99999.0    0.00 
  85    8:50   0.56   40.0    36    4.1   285     8.4   99999.0    0.00 
  85    9:00   0.60   37.3    41    5.0   168     8.4   99999.0    0.00 
  85    9:10   0.63   37.2    41    4.7   150     6.6   99999.0    0.00 
  85    9:20   0.66   38.6    38    4.4   152     6.6   99999.0    0.00 
  85    9:30   0.69   39.7    35    4.7   161     7.2   99999.0    0.00 
  85    9:40   0.71   40.6    34    5.0   124     8.4   99999.0    0.00 
  85    9:50   0.74   40.4    34    5.8   164    12.5   99999.0    0.00 
  85   10:00   0.77   40.9    34    5.2   181     9.6   99999.0    0.00 
  85   10:10   0.79   41.2    34    6.0   156    10.2   99999.0    0.00 
  85   10:20   0.81   42.4    32    4.6   176     7.8   99999.0    0.00 
  85   10:30   0.83   43.6    30    5.1   203     9.6   99999.0    0.00 
  85   10:40   0.85   44.2    29    5.5   161    10.8   99999.0    0.00 
  85   10:50   0.87   44.3    30    6.1   175    10.2   99999.0    0.00 
  85   11:00   0.88   44.4    30    7.0   176    12.5   99999.0    0.00 
  85   11:10   0.89   45.1    29    5.5   131    12.5   99999.0    0.00 
  85   11:20   0.90   45.1    30    5.4   140    10.8   99999.0    0.00 
  85   11:30   0.92   45.4    30    6.0   120    11.3   99999.0    0.00 
  85   11:40   0.92   45.2    30    5.6   126    11.3   99999.0    0.00 
  85   11:50   0.93   45.4    30    5.3   155     9.6   99999.0    0.00 
  85   12:00   0.93   45.9    30    6.6   169    11.9   99999.0    0.00 
  85   12:10   0.94   45.9    30    6.6   153    13.1   99999.0    0.00 
  85   12:20   0.94   47.4    29    5.0   101     9.6   99999.0    0.00 
  85   12:30   0.94   46.4    30    6.7   204    11.9   99999.0    0.00 
  85   12:40   0.93   47.1    28    5.2   191     9.0   99999.0    0.00 
  85   12:50   0.93   48.8    30    6.7   124    14.3   99999.0    0.00 
  85   13:00   0.92   48.9    30   10.2    72    14.3   99999.0    0.00 
  85   13:10   0.90   48.4    32    8.8    88    14.3   99999.0    0.00 
  85   13:20   0.90   48.0    32    5.4   136    10.2   99999.0    0.00 
  85   13:30   0.90   48.8    32    5.2   188    10.2   99999.0    0.00 
  85   13:40   0.88   48.1    32    5.9   211    14.3   99999.0    0.00 
  85   13:50   0.86   48.5    32    7.7   155    12.5   99999.0    0.00 
  85   14:00   0.85   49.5    25    7.7   237    18.5   99999.0    0.00 
  85   14:10   0.83   51.6    21    6.3   342    17.3   99999.0    0.00 
  85   14:20   0.81   51.9    21    7.6   293    17.9   99999.0    0.00 
  85   14:30   0.79   51.5    19    8.9   305    15.5   99999.0    0.00 
  85   14:40   0.69   53.8    18    9.9   338    14.9   99999.0    0.00 
  85   14:50   0.74   54.6    18    8.1   341    14.3   99999.0    0.00 
  85   15:00   0.71   55.4    18    7.6   338    15.5   99999.0    0.00 
  85   15:10   0.68   54.9    18   10.1   345    17.3   99999.0    0.00 
  85   15:20   0.65   55.8    17    9.5   331    17.9   99999.0    0.00 
  85   15:30   0.61   54.3    18   10.1   329    16.7   99999.0    0.00 
  85   15:40   0.58   55.2    17    8.6   334    16.7   99999.0    0.00 
  85   15:50   0.56   53.7    18    9.1   307    15.5   99999.0    0.00 
  85   16:00   0.52   54.7    17    8.3   339    13.7   99999.0    0.00 
  85   16:10   0.48   54.1    18    8.9   317    16.1   99999.0    0.00 
  85   16:20   0.45   52.9    18    9.0   316    14.9   99999.0    0.00 
  85   16:30   0.40   53.6    18    9.2   326    14.9   99999.0    0.00 
  85   16:40   0.37   52.8    19    8.5   301    15.5   99999.0    0.00 
  85   16:50   0.34   52.0    19    7.1   308    16.1   99999.0    0.00 
  85   17:00   0.29   51.8    19    6.5   292    13.7   99999.0    0.00 
  85   17:10   0.23   50.6    19    6.2   271    13.7   99999.0    0.00 
  85   17:20   0.20   49.6    20    6.6   291    14.9   99999.0    0.00 
  85   17:30   0.20   49.9    19    6.5   298    10.8   99999.0    0.00 
  85   17:40   0.16   49.5    19    6.1   299    12.5   99999.0    0.00 
  85   17:50   0.10   47.6    20    6.7   298    11.9   99999.0    0.00 
  85   18:00   0.02   45.6    22    6.0   291    11.3   99999.0    0.00 
  85   18:10   0.01   44.8    22    6.0   296    12.5   99999.0    0.00 
  85   18:20   0.01   44.5    22    6.8   292    13.1   99999.0    0.00 
  85   18:30   0.00   44.3    22    6.3   289    13.1   99999.0    0.00 
  85   18:40   0.00   43.6    23    5.7   294    13.1   99999.0    0.00 
  85   18:50   0.00   43.0    24    4.7   314    10.2   99999.0    0.00 
  85   19:00   0.00   42.2    26    4.7   333    13.7   99999.0    0.00 
  85   19:10   0.00   40.7    28    3.2    31     6.6   99999.0    0.00 
  85   19:20   0.00   39.3    30    5.8   333     9.6   99999.0    0.00 
  85   19:30   0.00   40.9    27    6.5   299    11.9   99999.0    0.00 
  85   19:40   0.00   41.5    26    5.1   294    11.3   99999.0    0.00 
  85   19:50   0.00   41.4    26    4.5   326     9.0   99999.0    0.00 
  85   20:00   0.00   40.8    28    5.3   313    10.2   99999.0    0.00 
  85   20:10   0.00   40.6    28    3.9   321     7.8   99999.0    0.00 
  85   20:20   0.00   39.8    29    3.4   328     8.4   99999.0    0.00 
  85   20:30   0.00   39.3    29    4.3   334     8.4   99999.0    0.00 
  85   20:40   0.00   39.6    29    4.9   326     9.0   99999.0    0.00 
  85   20:50   0.00   39.7    30    4.1   324     8.4   99999.0    0.00 
  85   21:00   0.00   39.5    31    2.1   318     6.0   99999.0    0.00 
  85   21:10   0.00   39.0    32    2.5   173     6.0   99999.0    0.00 
  85   21:20   0.00   39.0    32    2.2   312     4.8   99999.0    0.00 
  85   21:30   0.00   38.9    34    3.6   314     9.6   99999.0    0.00 
  85   21:40   0.00   39.2    33    4.1   333    10.8   99999.0    0.00 
  85   21:50   0.00   39.8    33    6.5   313    10.8   99999.0    0.00 
  85   22:00   0.00   39.9    33    6.3   311    12.5   99999.0    0.00 
  85   22:10   0.00   40.0    33    6.1   307    11.3   99999.0    0.00 
  85   22:20   0.00   40.3    32    7.7   311    13.1   99999.0    0.00 
  85   22:30   0.00   39.8    33    5.4   309    10.8   99999.0    0.00 
  85   22:40   0.00   39.3    34    3.1   272     7.8   99999.0    0.00 
  85   22:50   0.00   36.9    41    1.8   270     3.6   99999.0    0.00 
  85   23:00   0.00   32.2    53    2.0   220     3.6   99999.0    0.00 
  85   23:10   0.00   30.6    55    1.7   222     3.6   99999.0    0.00 
  85   23:20   0.00   29.7    60    2.3   228     3.6   99999.0    0.00 
  85   23:30   0.00   28.7    63    2.9   224     3.6   99999.0    0.00 
  85   23:40   0.00   28.6    61    2.2   206     3.6   99999.0    0.00 
  85   23:50   0.00   30.6    54    1.8   178     3.6   99999.0    0.00 
  86    0:00   0.00   30.7    56    2.0   212     4.2   99999.0    0.00 
  86    0:10   0.00   30.9    55    2.1   229     4.2   99999.0    0.00 
  86    0:20   0.00   31.2    55    1.7   214     4.2   99999.0    0.00 
  86    0:30   0.00   30.7    56    1.1   198     3.0   99999.0    0.00 
  86    0:40   0.00   30.3    58    2.4   224     3.6   99999.0    0.00 
  86    0:50   0.00   31.5    54    1.4   182     3.0   99999.0    0.00 
  86    1:00   0.00   30.7    55    1.6    28     4.8   99999.0    0.00 
  86    1:10   0.00   28.3    63    1.7   340     3.6   99999.0    0.00 
  86    1:20   0.00   26.6    67    2.1   274     3.6   99999.0    0.00 
  86    1:30   0.00   26.3    70    2.6   232     3.6   99999.0    0.00 
  86    1:40   0.00   26.1    71    0.9   254     3.6   99999.0    0.00 
  86    1:50   0.00   25.8    71    1.6   245     3.6   99999.0    0.00 
  86    2:00   0.00   25.1    71    2.4   316     4.2   99999.0    0.00 
  86    2:10   0.00   25.7    70    2.1   297     3.6   99999.0    0.00 
  86    2:20   0.00   25.8    70    2.4   291     4.2   99999.0    0.00 
  86    2:30   0.00   25.7    69    2.6   279     4.2   99999.0    0.00 
  86    2:40   0.00   25.5    71    1.9   254     3.6   99999.0    0.00 
  86    2:50   0.00   25.0    73    2.0   276     4.2   99999.0    0.00 
  86    3:00   0.00   24.6    72    2.3   305     4.2   99999.0    0.00 
  86    3:10   0.00   25.1    70    2.8   299     5.4   99999.0    0.00 
  86    3:20   0.00   25.1    72    1.6   254     3.6   99999.0    0.00 
  86    3:30   0.00   24.6    72    1.5   300     3.6   99999.0    0.00 
  86    3:40   0.00   24.5    73    2.0   269     3.6   99999.0    0.00 
  86    3:50   0.00   24.3    74    1.8   279     3.6   99999.0    0.00 
  86    4:00   0.00   24.7    73    1.8   278     4.2   99999.0    0.00 
  86    4:10   0.00   24.9    72    2.3   251     4.8   99999.0    0.00 
  86    4:20   0.00   24.8    73    2.6   232     4.2   99999.0    0.00 

Return to Los Posos, Valles Caldera graphs page.


Western Regional Climate Center,wrcc@dri.edu